MAPA DE AEROPUERTO

INFORMACIÓN METAR y TAF

METAR FOR LIRF
ADDS - METARS form results

(1055 UTC 05 August 2021)
Data provider http://aviationweather.gov/metar/data/
 
METAR text: LIRF 051050Z 27014KT 9999 FEW025 27/20 Q1011 NOSIG
Conditions at: LIRF (ROME/FIUMICINO , IT) observed 1050 UTC 05 August 2021
Temperature: 27.0°C (81°F)
Dewpoint: 20.0°C (68°F) [RH = 66%]
Pressure (altimeter): 29.85 inches Hg (1011.0 mb)
Winds: from the W (270 degrees) at 16 MPH (14 knots; 7.2 m/s)
Visibility: 6 or more miles (10+ km)
Ceiling: at least 12,000 feet AGL
Clouds: few clouds at 2500 feet AGL
Weather: no significant weather observed at this time

METAR text: LIRF 051020Z 27013KT 9999 FEW022 26/19 Q1011 NOSIG
Conditions at: LIRF (ROME/FIUMICINO , IT) observed 1020 UTC 05 August 2021
Temperature: 26.0°C (79°F)
Dewpoint: 19.0°C (66°F) [RH = 65%]
Pressure (altimeter): 29.85 inches Hg (1011.0 mb)
Winds: from the W (270 degrees) at 15 MPH (13 knots; 6.7 m/s)
Visibility: 6 or more miles (10+ km)
Ceiling: at least 12,000 feet AGL
Clouds: few clouds at 2200 feet AGL
Weather: no significant weather observed at this time

Forecast for: LIRF (ROME/FIUMICINO , IT)
Text: TAF LIRF 050500Z 0506/0612 27015KT 9999 SCT040
Forecast period: 0600 to 1900 UTC 05 August 2021
Forecast type: FROM: standard forecast or significant change
Winds: from the W (270 degrees) at 17 MPH (15 knots; 7.7 m/s)
Visibility: 6 or more miles (10+ km)
Ceiling: at least 12,000 feet AGL
Clouds: scattered clouds at 4000 feet AGL
Weather: no significant weather forecast for this period
Text: BECMG 0519/0521 VRB05KT
Forecast period: 1900 UTC 05 August 2021 to 0900 UTC 06 August 2021
Forecast type: BECOMING: Conditions expected to become as follows by 2100 UTC 05 August 2021
Winds: variable direction winds at 6 MPH (5 knots; 2.6 m/s)
Visibility: 6 or more miles (10+ km)
Ceiling: at least 12,000 feet AGL
Clouds: scattered clouds at 4000 feet AGL
Weather: no significant weather forecast for this period
Text: BECMG 0609/0611 25012KT
Forecast period: 0900 to 1200 UTC 06 August 2021
Forecast type: BECOMING: Conditions expected to become as follows by 1100 UTC 06 August 2021
Winds: from the WSW (250 degrees) at 14 MPH (12 knots; 6.2 m/s)
Visibility: 6 or more miles (10+ km)
Ceiling: at least 12,000 feet AGL
Clouds: scattered clouds at 4000 feet AGL
Weather: no significant weather forecast for this period